Gunilla — SERW — position and weather

sailwx.info

Track history (hours):
 
Tides and Currents Weather Stations Pressure Air Temp Water Temp Dewpoint Dewpoint Depression Visibility Wind Speed Wind Dir Waves Ship Positions

Gunilla (Sweden)

Ship's website: http://www.gunilla.nu/engelsk/frameset_english.htm

Last reported at 2019-Dec-14 17:31 UTC. Time now 2020-Jan-21 00:54 UTC.
Position N 27°52' W 015°18'.
Warning: this ship's position is 37 days out of date.

Length 49.4 m; beam 8.4 m; draft 2.7 m.

Type: Sailing vessel. MMSI: 265318000.

Date/timePositionNaut miles runAvg speedWind from/ knotsBaromVisibWave heightAir tempDewpointWater temp
2019-Dec-14 17:31N 27°52' W 015°18'12 6.0
2019-Dec-14 15:30N 28°03' W 015°20'3 5.6
2019-Dec-14 15:01N 28°05' W 015°23'3 5.5
2019-Dec-14 14:30N 28°07' W 015°25'2 0.8
2019-Dec-14 12:29N 28°09' W 015°26'0 0.0
2019-Dec-14 10:29N 28°09' W 015°26'0 0.0
2019-Dec-14 09:29N 28°09' W 015°26'0 0.0
2019-Dec-14 06:50N 28°09' W 015°26'0 0.0
2019-Dec-14 06:23N 28°09' W 015°26'0 0.0
2019-Dec-14 05:53N 28°09' W 015°26'0 0.0
2019-Dec-14 04:53N 28°09' W 015°26'0 0.0
2019-Dec-14 04:23N 28°09' W 015°26'0 0.0
2019-Dec-14 03:23N 28°09' W 015°26'0 0.0
2019-Dec-14 02:53N 28°09' W 015°26'0 0.0
2019-Dec-14 01:26N 28°09' W 015°26'0 0.0
2019-Dec-13 23:29N 28°09' W 015°26'0 0.0
2019-Dec-13 22:29N 28°09' W 015°26'0 0.0
2019-Dec-13 20:29N 28°09' W 015°26'0 0.0
2019-Dec-13 18:29N 28°09' W 015°26'0 0.0
2019-Dec-13 16:47N 28°09' W 015°26'0 0.0
2019-Dec-13 16:00N 28°09' W 015°26'3 1.0
2019-Dec-13 13:00N 28°07' W 015°23'3 0.6
2019-Dec-13 08:22N 28°09' W 015°25'0 0.0
2019-Dec-13 06:52N 28°09' W 015°25'0 0.0
2019-Dec-13 06:28N 28°09' W 015°25'0 0.0
2019-Dec-13 05:55N 28°09' W 015°25'0 0.0
2019-Dec-13 04:25N 28°09' W 015°25'0 0.0
2019-Dec-13 01:58N 28°09' W 015°25'0 0.0
2019-Dec-12 23:28N 28°09' W 015°25'0 0.0
2019-Dec-12 19:58N 28°09' W 015°25'0 0.0
2019-Dec-12 14:58N 28°09' W 015°25'0 0.0
2019-Dec-12 13:25N 28°09' W 015°25'0 0.0
2019-Dec-12 12:25N 28°09' W 015°25'0 0.0
2019-Dec-12 10:58N 28°09' W 015°25'0 0.0
2019-Dec-12 10:28N 28°09' W 015°25'0 0.0
2019-Dec-12 08:55N 28°09' W 015°25'0 0.0
2019-Dec-12 07:28N 28°09' W 015°25'0 0.0
2019-Dec-12 05:58N 28°09' W 015°25'0 0.0
2019-Dec-12 04:28N 28°09' W 015°25'0 0.0
2019-Dec-12 01:52N 28°09' W 015°25'0 0.0
2019-Dec-12 01:22N 28°09' W 015°25'0 0.0
2019-Dec-12 00:28N 28°09' W 015°25'0 0.0
2019-Dec-11 23:58N 28°09' W 015°25'0 0.0
2019-Dec-11 22:28N 28°09' W 015°25'0 0.0
2019-Dec-11 20:55N 28°09' W 015°25'0 0.0
2019-Dec-11 19:28N 28°09' W 015°25'0 0.0
2019-Dec-11 11:00N 28°09' W 015°25'0 0.0
2019-Dec-11 09:00N 28°09' W 015°25'0 0.0
2019-Dec-11 07:30N 28°09' W 015°25'0 0.0
2019-Dec-11 06:00N 28°09' W 015°25'0 0.0
2019-Dec-11 04:30N 28°09' W 015°25'0 0.0
2019-Dec-11 03:30N 28°09' W 015°25'0 0.0
2019-Dec-11 03:00N 28°09' W 015°25'0 0.0
2019-Dec-10 23:00N 28°09' W 015°25'0 0.0
2019-Dec-10 22:00N 28°09' W 015°25'0 0.0
2019-Dec-10 20:30N 28°09' W 015°25'0 0.0
2019-Dec-10 18:30N 28°09' W 015°25'0 0.0
2019-Dec-10 16:30N 28°09' W 015°25'0 0.0
2019-Dec-10 14:30N 28°09' W 015°25'0 0.0
2019-Dec-10 13:00N 28°09' W 015°25'0 0.0
2019-Dec-10 12:30N 28°09' W 015°25'0 0.0
2019-Dec-10 11:30N 28°09' W 015°25'0 0.0
2019-Dec-10 10:30N 28°09' W 015°25'0 0.0
2019-Dec-10 09:30N 28°09' W 015°25'0 0.0
2019-Dec-10 09:00N 28°09' W 015°25'0 0.0
2019-Dec-10 06:30N 28°09' W 015°25'0 0.0
2019-Dec-10 04:30N 28°09' W 015°25'0 0.0
2019-Dec-10 03:30N 28°09' W 015°25'0 0.0
2019-Dec-10 03:00N 28°09' W 015°25'0 0.0
2019-Dec-10 02:00N 28°09' W 015°25'0 0.0
2019-Dec-09 22:00N 28°09' W 015°25'0 0.0
2019-Dec-09 21:00N 28°09' W 015°25'0 0.0
2019-Dec-09 20:30N 28°09' W 015°25'0 0.0
2019-Dec-09 20:00N 28°09' W 015°25'0 0.0
2019-Dec-09 18:00N 28°09' W 015°25'0 0.0
2019-Dec-09 07:00N 28°09' W 015°25'0 0.0
2019-Dec-09 04:30N 28°09' W 015°25'0 0.0
2019-Dec-09 03:30N 28°09' W 015°25'0 0.0
2019-Dec-08 22:30N 28°09' W 015°25'0 0.0
2019-Dec-08 20:30N 28°09' W 015°25'0 0.0
2019-Dec-08 20:00N 28°09' W 015°25'0 0.0
2019-Dec-08 18:00N 28°09' W 015°25'0 0.0
2019-Dec-08 17:00N 28°09' W 015°25'0 0.0
2019-Dec-08 13:00N 28°09' W 015°25'0 0.0
2019-Dec-08 11:00N 28°09' W 015°25'0 0.0
2019-Dec-08 10:00N 28°09' W 015°25'2 1.8
2019-Dec-08 09:00N 28°07' W 015°25'18 3.3
2019-Dec-08 03:30N 28°25' W 015°20'3 5.0
2019-Dec-08 03:00N 28°27' W 015°21'3 5.3
2019-Dec-08 02:30N 28°29' W 015°23'5 5.2
2019-Dec-08 01:30N 28°34' W 015°26'6 4.3
2019-Dec-08 00:00N 28°40' W 015°26'3 6.1
2019-Dec-07 23:30N 28°40' W 015°23'13 6.7
2019-Dec-07 21:30N 28°42' W 015°08'7 6.7
2019-Dec-07 20:30N 28°43' W 015°00'  
Track history (hours):
 
Tides and Currents Weather Stations Pressure Air Temp Water Temp Dewpoint Dewpoint Depression Visibility Wind Speed Wind Dir Waves Ship Positions

Gunilla (Sweden)

Ship's website: http://www.gunilla.nu/engelsk/frameset_english.htm

Last reported at 2019-Dec-14 17:31 UTC. Time now 2020-Jan-21 00:54 UTC.
Position N 27°52' W 015°18'.
Warning: this ship's position is 37 days out of date.

Length 49.4 m; beam 8.4 m; draft 2.7 m.

Type: Sailing vessel. MMSI: 265318000.

Date/timePositionNaut miles runAvg speedWind from/ knotsBaromVisibWave heightAir tempDewpointWater temp
2019-Dec-14 17:31N 27°52' W 015°18'12 6.0
2019-Dec-14 15:30N 28°03' W 015°20'3 5.6
2019-Dec-14 15:01N 28°05' W 015°23'3 5.5
2019-Dec-14 14:30N 28°07' W 015°25'2 0.8
2019-Dec-14 12:29N 28°09' W 015°26'0 0.0
2019-Dec-14 10:29N 28°09' W 015°26'0 0.0
2019-Dec-14 09:29N 28°09' W 015°26'0 0.0
2019-Dec-14 06:50N 28°09' W 015°26'0 0.0
2019-Dec-14 06:23N 28°09' W 015°26'0 0.0
2019-Dec-14 05:53N 28°09' W 015°26'0 0.0
2019-Dec-14 04:53N 28°09' W 015°26'0 0.0
2019-Dec-14 04:23N 28°09' W 015°26'0 0.0
2019-Dec-14 03:23N 28°09' W 015°26'0 0.0
2019-Dec-14 02:53N 28°09' W 015°26'0 0.0
2019-Dec-14 01:26N 28°09' W 015°26'0 0.0
2019-Dec-13 23:29N 28°09' W 015°26'0 0.0
2019-Dec-13 22:29N 28°09' W 015°26'0 0.0
2019-Dec-13 20:29N 28°09' W 015°26'0 0.0
2019-Dec-13 18:29N 28°09' W 015°26'0 0.0
2019-Dec-13 16:47N 28°09' W 015°26'0 0.0
2019-Dec-13 16:00N 28°09' W 015°26'3 1.0
2019-Dec-13 13:00N 28°07' W 015°23'3 0.6
2019-Dec-13 08:22N 28°09' W 015°25'0 0.0
2019-Dec-13 06:52N 28°09' W 015°25'0 0.0
2019-Dec-13 06:28N 28°09' W 015°25'0 0.0
2019-Dec-13 05:55N 28°09' W 015°25'0 0.0
2019-Dec-13 04:25N 28°09' W 015°25'0 0.0
2019-Dec-13 01:58N 28°09' W 015°25'0 0.0
2019-Dec-12 23:28N 28°09' W 015°25'0 0.0
2019-Dec-12 19:58N 28°09' W 015°25'0 0.0
2019-Dec-12 14:58N 28°09' W 015°25'0 0.0
2019-Dec-12 13:25N 28°09' W 015°25'0 0.0
2019-Dec-12 12:25N 28°09' W 015°25'0 0.0
2019-Dec-12 10:58N 28°09' W 015°25'0 0.0
2019-Dec-12 10:28N 28°09' W 015°25'0 0.0
2019-Dec-12 08:55N 28°09' W 015°25'0 0.0
2019-Dec-12 07:28N 28°09' W 015°25'0 0.0
2019-Dec-12 05:58N 28°09' W 015°25'0 0.0
2019-Dec-12 04:28N 28°09' W 015°25'0 0.0
2019-Dec-12 01:52N 28°09' W 015°25'0 0.0
2019-Dec-12 01:22N 28°09' W 015°25'0 0.0
2019-Dec-12 00:28N 28°09' W 015°25'0 0.0
2019-Dec-11 23:58N 28°09' W 015°25'0 0.0
2019-Dec-11 22:28N 28°09' W 015°25'0 0.0
2019-Dec-11 20:55N 28°09' W 015°25'0 0.0
2019-Dec-11 19:28N 28°09' W 015°25'0 0.0
2019-Dec-11 11:00N 28°09' W 015°25'0 0.0
2019-Dec-11 09:00N 28°09' W 015°25'0 0.0
2019-Dec-11 07:30N 28°09' W 015°25'0 0.0
2019-Dec-11 06:00N 28°09' W 015°25'0 0.0
2019-Dec-11 04:30N 28°09' W 015°25'0 0.0
2019-Dec-11 03:30N 28°09' W 015°25'0 0.0
2019-Dec-11 03:00N 28°09' W 015°25'0 0.0
2019-Dec-10 23:00N 28°09' W 015°25'0 0.0
2019-Dec-10 22:00N 28°09' W 015°25'0 0.0
2019-Dec-10 20:30N 28°09' W 015°25'0 0.0
2019-Dec-10 18:30N 28°09' W 015°25'0 0.0
2019-Dec-10 16:30N 28°09' W 015°25'0 0.0
2019-Dec-10 14:30N 28°09' W 015°25'0 0.0
2019-Dec-10 13:00N 28°09' W 015°25'0 0.0
2019-Dec-10 12:30N 28°09' W 015°25'0 0.0
2019-Dec-10 11:30N 28°09' W 015°25'0 0.0
2019-Dec-10 10:30N 28°09' W 015°25'0 0.0
2019-Dec-10 09:30N 28°09' W 015°25'0 0.0
2019-Dec-10 09:00N 28°09' W 015°25'0 0.0
2019-Dec-10 06:30N 28°09' W 015°25'0 0.0
2019-Dec-10 04:30N 28°09' W 015°25'0 0.0
2019-Dec-10 03:30N 28°09' W 015°25'0 0.0
2019-Dec-10 03:00N 28°09' W 015°25'0 0.0
2019-Dec-10 02:00N 28°09' W 015°25'0 0.0
2019-Dec-09 22:00N 28°09' W 015°25'0 0.0
2019-Dec-09 21:00N 28°09' W 015°25'0 0.0
2019-Dec-09 20:30N 28°09' W 015°25'0 0.0
2019-Dec-09 20:00N 28°09' W 015°25'0 0.0
2019-Dec-09 18:00N 28°09' W 015°25'0 0.0
2019-Dec-09 07:00N 28°09' W 015°25'0 0.0
2019-Dec-09 04:30N 28°09' W 015°25'0 0.0
2019-Dec-09 03:30N 28°09' W 015°25'0 0.0
2019-Dec-08 22:30N 28°09' W 015°25'0 0.0
2019-Dec-08 20:30N 28°09' W 015°25'0 0.0
2019-Dec-08 20:00N 28°09' W 015°25'0 0.0
2019-Dec-08 18:00N 28°09' W 015°25'0 0.0
2019-Dec-08 17:00N 28°09' W 015°25'0 0.0
2019-Dec-08 13:00N 28°09' W 015°25'0 0.0
2019-Dec-08 11:00N 28°09' W 015°25'0 0.0
2019-Dec-08 10:00N 28°09' W 015°25'2 1.8
2019-Dec-08 09:00N 28°07' W 015°25'18 3.3
2019-Dec-08 03:30N 28°25' W 015°20'3 5.0
2019-Dec-08 03:00N 28°27' W 015°21'3 5.3
2019-Dec-08 02:30N 28°29' W 015°23'5 5.2
2019-Dec-08 01:30N 28°34' W 015°26'6 4.3
2019-Dec-08 00:00N 28°40' W 015°26'3 6.1
2019-Dec-07 23:30N 28°40' W 015°23'13 6.7
2019-Dec-07 21:30N 28°42' W 015°08'7 6.7
2019-Dec-07 20:30N 28°43' W 015°00'  

Dump ship's entire track history